Time;durP1;ratioP1;P1;durP2;ratioP2;P2;SDS_P1;SDS_P2;PMS_P1;PMS_P2;Temp;Humidity;BMP_temperature;BMP_pressure;BME280_temperature;BME280_humidity;BME280_pressure;Samples;Min_cycle;Max_cycle;Signal;HPM_P1;HPM_P2
2021/04/18 00:00:22;;;;;;;6.57;4.43;;;8.00;99.90;;;;;;5028749;28;20244;-55
2021/04/18 00:02:50;;;;;;;6.80;4.33;;;8.00;99.90;;;;;;5028846;28;20707;-54
2021/04/18 00:05:22;;;;;;;8.70;4.97;;;8.20;99.90;;;;;;5009425;28;20237;-55
2021/04/18 00:07:50;;;;;;;7.60;4.87;;;8.30;99.90;;;;;;5009456;28;20241;-53
2021/04/18 00:10:19;;;;;;;9.00;5.20;;;8.20;99.90;;;;;;5022152;28;20632;-52
2021/04/18 00:12:46;;;;;;;7.40;5.43;;;8.10;99.90;;;;;;5028167;28;20294;-57
2021/04/18 00:15:16;;;;;;;8.50;5.37;;;7.90;99.90;;;;;;5029031;28;20259;-56
2021/04/18 00:17:43;;;;;;;6.83;5.10;;;7.80;99.90;;;;;;5028800;28;20240;-56
2021/04/18 00:20:13;;;;;;;8.03;4.93;;;7.80;99.90;;;;;;5028678;28;20246;-53
2021/04/18 00:22:41;;;;;;;8.10;4.73;;;7.80;99.90;;;;;;5016861;28;20237;-53
2021/04/18 00:25:12;;;;;;;7.80;5.00;;;7.90;99.90;;;;;;5009165;28;20311;-55
2021/04/18 00:27:40;;;;;;;6.60;4.77;;;7.90;99.90;;;;;;5009039;28;20754;-54
2021/04/18 00:30:11;;;;;;;9.30;5.60;;;8.00;99.90;;;;;;5011584;28;20249;-55
2021/04/18 00:32:40;;;;;;;7.13;4.70;;;8.00;99.90;;;;;;5022383;28;20252;-55
2021/04/18 00:35:09;;;;;;;6.93;5.20;;;8.00;99.90;;;;;;5030123;28;20558;-55
2021/04/18 00:37:37;;;;;;;7.07;5.00;;;7.90;99.90;;;;;;5032039;28;20274;-55
2021/04/18 00:40:08;;;;;;;8.83;4.67;;;7.90;99.90;;;;;;5038888;28;20762;-55
2021/04/18 00:42:36;;;;;;;7.73;4.60;;;7.80;99.90;;;;;;5029245;28;20253;-53
2021/04/18 00:45:05;;;;;;;9.30;4.80;;;7.90;99.90;;;;;;5032105;28;20694;-56
2021/04/18 00:47:34;;;;;;;8.87;4.97;;;8.00;99.90;;;;;;5031456;28;20232;-53
2021/04/18 00:50:04;;;;;;;7.67;4.80;;;7.90;99.90;;;;;;5014183;28;20233;-54
2021/04/18 00:52:31;;;;;;;6.73;4.93;;;7.90;99.90;;;;;;5031044;28;20252;-55
2021/04/18 00:54:59;;;;;;;9.83;5.10;;;7.90;99.90;;;;;;5032256;28;20233;-54
2021/04/18 00:57:51;;;;;;;7.97;4.63;;;7.80;99.90;;;;;;5032061;28;20722;-52
2021/04/18 01:00:21;;;;;;;9.00;4.90;;;7.70;99.90;;;;;;5026596;28;20237;-56
2021/04/18 01:02:48;;;;;;;7.60;4.90;;;7.90;99.90;;;;;;5012089;28;20775;-52
2021/04/18 01:05:18;;;;;;;7.43;4.70;;;8.00;99.90;;;;;;5012226;28;20236;-54
2021/04/18 01:07:46;;;;;;;7.57;4.67;;;8.00;99.90;;;;;;4994195;28;20264;-57
2021/04/18 01:10:17;;;;;;;6.10;4.47;;;8.00;99.90;;;;;;5027412;28;20233;-56
2021/04/18 01:12:46;;;;;;;5.03;4.03;;;7.90;99.90;;;;;;5031128;28;20239;-54
2021/04/18 01:15:15;;;;;;;6.10;4.47;;;8.10;99.90;;;;;;5014083;28;20803;-55
2021/04/18 01:17:44;;;;;;;7.47;5.40;;;8.20;99.90;;;;;;5031189;28;20329;-55
2021/04/18 01:20:17;;;;;;;8.57;4.70;;;7.90;99.90;;;;;;5025855;28;20244;-53
2021/04/18 01:22:46;;;;;;;9.57;4.70;;;7.80;99.90;;;;;;5014985;28;20241;-56
2021/04/18 01:25:27;;;;;;;9.10;4.40;;;7.70;99.90;;;;;;5029709;28;20263;-53
2021/04/18 01:28:06;;;;;;;10.57;4.93;;;7.70;99.90;;;;;;5030980;28;20599;-54
2021/04/18 01:30:34;;;;;;;5.77;4.27;;;7.60;99.90;;;;;;5021410;28;20248;-56
2021/04/18 01:33:03;;;;;;;6.50;3.83;;;7.60;99.90;;;;;;5028988;28;20757;-55
2021/04/18 01:35:32;;;;;;;5.87;4.10;;;7.90;99.90;;;;;;5029486;28;20252;-56
2021/04/18 01:38:00;;;;;;;5.30;4.23;;;8.10;99.90;;;;;;5030560;28;20719;-55
2021/04/18 01:40:30;;;;;;;6.37;4.40;;;8.30;99.90;;;;;;5029584;28;20291;-54
2021/04/18 01:43:02;;;;;;;9.03;4.13;;;8.30;99.90;;;;;;5029771;28;20236;-56
2021/04/18 01:45:30;;;;;;;7.53;4.60;;;8.30;99.90;;;;;;5013356;28;20299;-54
2021/04/18 01:47:59;;;;;;;6.63;4.20;;;8.30;99.90;;;;;;5001416;28;20236;-54
2021/04/18 01:50:27;;;;;;;7.43;4.67;;;8.20;99.90;;;;;;5024908;28;20243;-55
2021/04/18 01:52:55;;;;;;;6.50;4.03;;;8.00;99.90;;;;;;5030919;28;20684;-56
2021/04/18 01:55:25;;;;;;;8.30;4.70;;;8.10;99.90;;;;;;5029662;28;20279;-55
2021/04/18 01:57:54;;;;;;;7.43;4.20;;;8.00;99.90;;;;;;5002522;28;20304;-53
2021/04/18 02:00:40;;;;;;;6.60;4.10;;;8.10;99.90;;;;;;5007961;28;20274;-55
2021/04/18 02:03:07;;;;;;;6.40;4.23;;;8.10;99.90;;;;;;5029857;28;20587;-54
2021/04/18 02:05:41;;;;;;;6.37;4.80;;;8.20;99.90;;;;;;5029314;28;20236;-55
2021/04/18 02:08:21;;;;;;;6.20;4.70;;;8.20;99.90;;;;;;5028971;28;20224;-57
2021/04/18 02:10:53;;;;;;;7.67;4.37;;;8.30;99.90;;;;;;5028962;28;20239;-56
2021/04/18 02:13:30;;;;;;;8.10;4.40;;;8.30;99.90;;;;;;5012254;28;20263;-53
2021/04/18 02:16:19;;;;;;;7.70;4.20;;;8.20;99.90;;;;;;5022598;28;20233;-56
2021/04/18 02:19:00;;;;;;;7.63;4.83;;;8.40;99.90;;;;;;5009462;28;20805;-55
2021/04/18 02:21:31;;;;;;;9.27;5.20;;;8.40;99.90;;;;;;5008870;28;20261;-56
2021/04/18 02:23:59;;;;;;;5.97;4.90;;;8.20;99.90;;;;;;5023920;28;20263;-56
2021/04/18 02:26:28;;;;;;;10.33;4.97;;;7.90;99.90;;;;;;5029120;28;20626;-56
2021/04/18 02:29:00;;;;;;;7.37;4.70;;;7.70;99.90;;;;;;5004785;28;20235;-53
2021/04/18 02:31:31;;;;;;;8.07;5.23;;;7.60;99.90;;;;;;5026885;28;20728;-56
2021/04/18 02:34:06;;;;;;;7.87;4.93;;;7.60;99.90;;;;;;5021013;28;20265;-53
2021/04/18 02:36:34;;;;;;;7.33;4.90;;;7.50;99.90;;;;;;5024823;28;20264;-54
2021/04/18 02:39:01;;;;;;;9.50;5.07;;;7.40;99.90;;;;;;5024923;28;20621;-56
2021/04/18 02:41:30;;;;;;;8.77;4.80;;;7.40;99.90;;;;;;5007988;28;20287;-55
2021/04/18 02:44:01;;;;;;;6.83;4.47;;;7.30;99.90;;;;;;5024532;28;20681;-54
2021/04/18 02:46:35;;;;;;;5.03;4.37;;;7.30;99.90;;;;;;5006737;28;20311;-53
2021/04/18 02:49:05;;;;;;;9.30;5.13;;;7.30;99.90;;;;;;5025019;28;20240;-55
2021/04/18 02:51:37;;;;;;;9.97;4.83;;;7.30;99.90;;;;;;5007482;28;20249;-55
2021/04/18 02:54:04;;;;;;;7.30;4.97;;;7.20;99.90;;;;;;5009462;28;20622;-54
2021/04/18 02:56:35;;;;;;;8.97;5.13;;;7.10;99.90;;;;;;5024750;28;20237;-55
2021/04/18 02:59:26;;;;;;;7.63;4.63;;;7.00;99.90;;;;;;5023728;28;20773;-54
2021/04/18 03:01:55;;;;;;;7.30;5.30;;;6.90;99.90;;;;;;5007009;28;20233;-55
2021/04/18 03:04:24;;;;;;;7.07;4.47;;;6.80;99.90;;;;;;4990805;28;20912;-57
2021/04/18 03:06:51;;;;;;;9.10;5.30;;;6.80;99.90;;;;;;5005546;28;20234;-52
2021/04/18 03:09:19;;;;;;;10.13;5.40;;;6.80;99.90;;;;;;5004997;28;20245;-56
2021/04/18 03:11:52;;;;;;;6.20;4.10;;;6.70;99.90;;;;;;5005101;28;20745;-57
2021/04/18 03:14:37;;;;;;;8.47;4.80;;;6.70;99.90;;;;;;5023463;28;20248;-56
2021/04/18 03:17:07;;;;;;;10.03;5.40;;;6.60;99.90;;;;;;4991444;28;20606;-57
2021/04/18 03:19:53;;;;;;;8.23;4.57;;;6.60;99.90;;;;;;5004767;28;20246;-56
2021/04/18 03:22:22;;;;;;;7.10;5.00;;;6.50;99.90;;;;;;5005047;28;20780;-57
2021/04/18 03:24:49;;;;;;;9.50;4.43;;;6.50;99.90;;;;;;5014984;28;20312;-56
2021/04/18 03:27:19;;;;;;;5.00;4.00;;;6.40;99.90;;;;;;5003753;28;20238;-56
2021/04/18 03:29:54;;;;;;;7.23;4.33;;;6.40;99.90;;;;;;5024488;28;20236;-56
2021/04/18 03:32:22;;;;;;;9.80;4.33;;;6.40;99.90;;;;;;5007418;28;20241;-56
2021/04/18 03:34:53;;;;;;;7.37;4.37;;;6.40;99.90;;;;;;5008021;28;20320;-57
2021/04/18 03:37:21;;;;;;;8.33;4.60;;;6.30;99.90;;;;;;5008199;28;20229;-57
2021/04/18 03:39:49;;;;;;;7.63;4.03;;;6.30;99.90;;;;;;5024612;28;20283;-57
2021/04/18 03:42:18;;;;;;;8.23;4.50;;;6.20;99.90;;;;;;5008732;28;20688;-56
2021/04/18 03:44:54;;;;;;;7.70;4.20;;;6.20;99.90;;;;;;5007666;28;20328;-57
2021/04/18 03:47:23;;;;;;;8.83;4.77;;;6.20;99.90;;;;;;5006665;28;20313;-54
2021/04/18 03:50:02;;;;;;;6.83;4.13;;;6.10;99.90;;;;;;4989579;28;20300;-55
2021/04/18 03:52:48;;;;;;;10.70;4.57;;;6.10;99.90;;;;;;5004087;28;20229;-54
2021/04/18 03:55:18;;;;;;;6.70;4.30;;;6.10;99.90;;;;;;5005420;28;20233;-55
2021/04/18 03:57:46;;;;;;;6.77;4.60;;;6.10;99.90;;;;;;5024371;28;20327;-54
2021/04/18 04:00:19;;;;;;;7.80;4.73;;;6.10;99.90;;;;;;5008777;28;20593;-53
2021/04/18 04:02:54;;;;;;;6.17;4.43;;;6.10;99.90;;;;;;5007656;28;20240;-54
2021/04/18 04:05:22;;;;;;;10.73;4.83;;;6.00;99.90;;;;;;5027427;28;20258;-57
2021/04/18 04:07:50;;;;;;;9.33;4.73;;;6.00;99.90;;;;;;5008653;28;20237;-56
2021/04/18 04:10:18;;;;;;;7.20;4.30;;;6.00;99.90;;;;;;5008452;28;20978;-55
2021/04/18 04:12:51;;;;;;;8.03;4.57;;;5.90;99.90;;;;;;5023129;28;20275;-56
2021/04/18 04:15:25;;;;;;;8.03;4.60;;;5.80;99.90;;;;;;5027652;28;20662;-55
2021/04/18 04:17:55;;;;;;;9.87;4.60;;;5.80;99.90;;;;;;5011836;28;20240;-56
2021/04/18 04:20:41;;;;;;;6.33;4.30;;;5.80;99.90;;;;;;5007911;28;20240;-56
2021/04/18 04:23:32;;;;;;;7.93;4.50;;;5.90;99.90;;;;;;5011580;28;20308;-56
2021/04/18 04:26:01;;;;;;;8.30;3.60;;;5.90;99.90;;;;;;5007452;28;20270;-56
2021/04/18 04:28:30;;;;;;;8.13;4.40;;;5.90;99.90;;;;;;5012349;28;20237;-57
2021/04/18 04:30:58;;;;;;;6.20;4.47;;;5.90;99.90;;;;;;5012349;28;20239;-55
2021/04/18 04:33:25;;;;;;;4.40;3.73;;;6.00;99.90;;;;;;5025726;28;20264;-57
2021/04/18 04:35:53;;;;;;;8.40;4.27;;;6.10;99.90;;;;;;5031818;28;20632;-57
2021/04/18 04:38:20;;;;;;;8.80;5.03;;;6.20;99.90;;;;;;5032011;28;20307;-57
2021/04/18 04:40:47;;;;;;;8.07;3.80;;;6.00;99.90;;;;;;5031752;28;20240;-57
2021/04/18 04:43:15;;;;;;;6.57;4.40;;;6.00;99.90;;;;;;5032360;28;20239;-57
2021/04/18 04:45:43;;;;;;;6.43;3.90;;;6.00;99.90;;;;;;5031732;28;20239;-54
2021/04/18 04:48:11;;;;;;;4.57;3.77;;;6.10;99.90;;;;;;5031931;28;20298;-53
2021/04/18 04:50:38;;;;;;;8.87;4.60;;;6.20;99.90;;;;;;5031626;28;20236;-56
2021/04/18 04:53:06;;;;;;;7.17;4.33;;;6.30;99.90;;;;;;5032051;28;20692;-54
2021/04/18 04:55:33;;;;;;;10.50;4.70;;;6.30;99.90;;;;;;5028939;28;20315;-57
2021/04/18 04:58:00;;;;;;;6.27;3.80;;;6.20;99.90;;;;;;5010785;28;20241;-57
2021/04/18 05:00:28;;;;;;;7.77;4.77;;;6.20;99.90;;;;;;5011181;28;20260;-56
2021/04/18 05:02:56;;;;;;;8.00;4.10;;;6.30;99.90;;;;;;5011935;28;20241;-56
2021/04/18 05:05:24;;;;;;;6.53;4.30;;;6.50;99.90;;;;;;5012568;28;20264;-56
2021/04/18 05:07:51;;;;;;;8.17;4.40;;;6.40;99.90;;;;;;5032062;28;20685;-57
2021/04/18 05:10:18;;;;;;;8.37;4.63;;;6.40;99.90;;;;;;5031176;28;20239;-56
2021/04/18 05:12:46;;;;;;;8.47;4.10;;;6.30;99.90;;;;;;5031454;28;20243;-56
2021/04/18 05:15:14;;;;;;;6.03;3.90;;;6.30;99.90;;;;;;5031403;28;20260;-56
2021/04/18 05:17:42;;;;;;;7.00;3.87;;;6.40;99.90;;;;;;5020322;28;20258;-57
2021/04/18 05:20:12;;;;;;;7.33;4.10;;;6.50;99.90;;;;;;5031266;28;20243;-57
2021/04/18 05:22:40;;;;;;;7.17;4.10;;;6.60;99.90;;;;;;5027439;28;20565;-55
2021/04/18 05:25:09;;;;;;;7.57;4.20;;;6.80;99.90;;;;;;5031639;28;20320;-55
2021/04/18 05:27:36;;;;;;;8.90;4.47;;;6.80;99.90;;;;;;5029670;28;20592;-57
2021/04/18 05:30:05;;;;;;;6.70;4.10;;;6.80;99.90;;;;;;5031336;28;20320;-56
2021/04/18 05:32:37;;;;;;;8.50;4.10;;;6.80;99.90;;;;;;5030382;28;20707;-56
2021/04/18 05:35:11;;;;;;;9.30;4.33;;;6.90;99.90;;;;;;5031089;28;20236;-56
2021/04/18 05:37:38;;;;;;;6.97;3.93;;;7.00;99.90;;;;;;5030518;28;20260;-55
2021/04/18 05:40:08;;;;;;;7.57;4.27;;;7.10;99.90;;;;;;5031166;28;20616;-55
2021/04/18 05:42:36;;;;;;;6.07;3.30;;;7.20;99.90;;;;;;5030842;28;20237;-57
2021/04/18 05:45:05;;;;;;;8.50;3.87;;;7.40;99.90;;;;;;5031315;28;20302;-53
2021/04/18 05:47:36;;;;;;;7.47;4.17;;;7.50;99.90;;;;;;5012083;28;20324;-57
2021/04/18 05:50:05;;;;;;;9.13;3.67;;;7.70;99.90;;;;;;5009757;28;20233;-54
2021/04/18 05:52:33;;;;;;;8.03;3.90;;;7.70;99.90;;;;;;5010784;28;20267;-53
2021/04/18 05:55:01;;;;;;;7.60;3.80;;;7.70;99.90;;;;;;5020976;28;20270;-54
2021/04/18 05:57:28;;;;;;;7.23;3.87;;;7.80;99.90;;;;;;5030852;28;20232;-57
2021/04/18 05:59:55;;;;;;;7.40;4.10;;;7.90;99.90;;;;;;5029630;28;20642;-57
2021/04/18 06:02:52;;;;;;;8.83;3.63;;;8.00;99.90;;;;;;5010784;28;20271;-55
2021/04/18 06:05:19;;;;;;;6.27;3.37;;;8.00;99.90;;;;;;5011265;28;20299;-54
2021/04/18 06:07:48;;;;;;;6.63;3.80;;;8.10;99.90;;;;;;5015516;28;20699;-54
2021/04/18 06:10:16;;;;;;;9.23;3.47;;;8.20;99.90;;;;;;5030594;28;20754;-57
2021/04/18 06:12:43;;;;;;;11.47;3.60;;;8.30;99.90;;;;;;5029834;28;20251;-54
2021/04/18 06:15:12;;;;;;;9.03;3.83;;;8.30;99.90;;;;;;5025237;28;20229;-55
2021/04/18 06:17:39;;;;;;;8.07;3.40;;;8.50;99.90;;;;;;5030202;28;20315;-57
2021/04/18 06:20:09;;;;;;;6.77;3.80;;;8.70;99.90;;;;;;5024880;28;20249;-55
2021/04/18 06:22:37;;;;;;;4.87;3.33;;;8.90;99.90;;;;;;5026259;28;20663;-56
2021/04/18 06:25:08;;;;;;;7.43;3.47;;;9.00;99.90;;;;;;5030158;28;20240;-57
2021/04/18 06:27:35;;;;;;;7.27;3.50;;;9.20;99.90;;;;;;5029884;28;20294;-54
2021/04/18 06:30:04;;;;;;;7.33;3.40;;;9.20;99.90;;;;;;5030062;28;20553;-53
2021/04/18 06:32:57;;;;;;;6.30;3.30;;;9.40;99.90;;;;;;5008701;28;20241;-56
2021/04/18 06:35:24;;;;;;;8.17;3.60;;;9.50;99.90;;;;;;5009112;28;20244;-56
2021/04/18 06:37:52;;;;;;;9.20;3.73;;;9.50;99.90;;;;;;5009764;28;20264;-55
2021/04/18 06:40:20;;;;;;;5.87;3.47;;;9.70;99.90;;;;;;5009376;28;20238;-56
2021/04/18 06:42:48;;;;;;;7.83;3.50;;;9.80;99.90;;;;;;5027588;28;20241;-52
2021/04/18 06:45:15;;;;;;;8.70;3.60;;;10.00;99.90;;;;;;5017140;28;20229;-52
2021/04/18 06:47:45;;;;;;;8.43;3.93;;;10.20;99.90;;;;;;5027601;28;20257;-55
2021/04/18 06:50:14;;;;;;;5.53;3.40;;;10.30;99.90;;;;;;5029386;28;20256;-56
2021/04/18 06:52:42;;;;;;;8.77;3.10;;;10.10;99.90;;;;;;5029357;28;20288;-53
2021/04/18 06:55:12;;;;;;;5.33;3.57;;;10.20;99.90;;;;;;5023101;28;20225;-53
2021/04/18 06:57:40;;;;;;;6.57;2.93;;;10.00;99.90;;;;;;5010759;28;20243;-54
2021/04/18 07:00:10;;;;;;;6.20;3.10;;;9.80;99.90;;;;;;5009372;28;20274;-55
2021/04/18 07:02:38;;;;;;;6.30;3.60;;;9.60;99.90;;;;;;5028500;28;20677;-52
2021/04/18 07:05:09;;;;;;;7.67;3.10;;;9.50;99.90;;;;;;5029089;28;20255;-54
2021/04/18 07:07:40;;;;;;;7.67;3.37;;;9.50;99.90;;;;;;5010005;28;20238;-54
2021/04/18 07:10:13;;;;;;;6.07;3.60;;;9.40;99.90;;;;;;5009701;28;20242;-52
2021/04/18 07:12:42;;;;;;;7.87;3.60;;;9.30;99.90;;;;;;5009642;28;20303;-56
2021/04/18 07:15:10;;;;;;;7.37;3.67;;;9.40;99.90;;;;;;5019229;28;20244;-55
2021/04/18 07:17:48;;;;;;;7.43;3.33;;;9.40;99.90;;;;;;5023945;28;20315;-56
2021/04/18 07:20:17;;;;;;;9.47;3.60;;;9.50;99.90;;;;;;5028941;28;20237;-56
2021/04/18 07:22:46;;;;;;;6.77;3.53;;;9.70;99.90;;;;;;5028454;28;20570;-56
2021/04/18 07:25:14;;;;;;;9.53;3.90;;;9.90;99.90;;;;;;5029543;28;20246;-56
2021/04/18 07:27:49;;;;;;;9.60;3.70;;;10.00;99.90;;;;;;5029302;28;20253;-55
2021/04/18 07:30:20;;;;;;;7.63;3.90;;;10.20;99.90;;;;;;5010982;28;20243;-56
2021/04/18 07:33:04;;;;;;;7.70;3.63;;;10.50;99.90;;;;;;5022651;28;20231;-52
2021/04/18 07:35:33;;;;;;;7.17;3.60;;;10.50;99.90;;;;;;5009439;28;20257;-57
2021/04/18 07:38:19;;;;;;;7.03;3.50;;;10.50;99.90;;;;;;5009189;28;20700;-55
2021/04/18 07:40:48;;;;;;;5.33;3.23;;;10.80;99.90;;;;;;5010711;28;20243;-56
2021/04/18 07:43:18;;;;;;;5.93;3.37;;;11.10;99.90;;;;;;5029192;28;20249;-57
2021/04/18 07:45:47;;;;;;;9.97;3.43;;;11.70;99.90;;;;;;5027210;28;20316;-56
2021/04/18 07:48:17;;;;;;;9.00;3.53;;;12.00;99.90;;;;;;5021957;28;20239;-57
2021/04/18 07:50:48;;;;;;;6.60;3.27;;;12.20;99.90;;;;;;5028819;28;20247;-54
2021/04/18 07:53:16;;;;;;;7.70;3.63;;;12.30;99.90;;;;;;5029155;28;20254;-56
2021/04/18 07:55:45;;;;;;;6.57;3.93;;;12.10;99.90;;;;;;5028368;28;20285;-55
2021/04/18 07:58:14;;;;;;;6.70;3.63;;;11.90;99.90;;;;;;5014873;28;20293;-54
2021/04/18 08:00:43;;;;;;;8.57;3.90;;;11.90;99.90;;;;;;5008532;28;20245;-56
2021/04/18 08:03:14;;;;;;;7.50;3.80;;;12.30;99.90;;;;;;5009227;28;20769;-55
2021/04/18 08:05:43;;;;;;;7.57;3.23;;;12.40;99.90;;;;;;5017182;28;20622;-56
2021/04/18 08:08:13;;;;;;;7.27;4.00;;;12.40;99.90;;;;;;5029350;28;20771;-55
2021/04/18 08:10:43;;;;;;;8.10;4.00;;;12.40;99.90;;;;;;5021667;28;20315;-56
2021/04/18 08:13:13;;;;;;;7.17;3.90;;;12.40;99.90;;;;;;5023789;28;20240;-55
2021/04/18 08:16:03;;;;;;;5.93;3.70;;;12.80;99.90;;;;;;5021670;28;20232;-54
2021/04/18 08:18:32;;;;;;;6.87;3.70;;;13.00;99.90;;;;;;5011650;28;20255;-55
2021/04/18 08:21:03;;;;;;;7.27;3.40;;;13.40;99.90;;;;;;5027356;28;20576;-53
2021/04/18 08:23:39;;;;;;;7.87;3.70;;;13.80;99.90;;;;;;5028541;28;20308;-52
2021/04/18 08:26:10;;;;;;;6.03;3.77;;;13.80;99.90;;;;;;5028927;28;20256;-55
2021/04/18 08:29:10;;;;;;;6.73;3.63;;;13.60;99.90;;;;;;5014665;28;20730;-52
2021/04/18 08:31:59;;;;;;;6.83;3.90;;;13.40;99.90;;;;;;5007132;28;20290;-55
2021/04/18 08:34:30;;;;;;;7.23;4.07;;;13.80;99.90;;;;;;5007744;28;20252;-53
2021/04/18 08:36:59;;;;;;;10.37;4.07;;;14.00;99.90;;;;;;5010945;28;20270;-54
2021/04/18 08:39:30;;;;;;;7.07;4.07;;;14.40;99.90;;;;;;5027591;28;20248;-54
2021/04/18 08:42:00;;;;;;;7.30;4.07;;;14.20;99.90;;;;;;5027155;28;20232;-55
2021/04/18 08:44:30;;;;;;;6.83;4.03;;;14.00;99.90;;;;;;5027123;28;20240;-52
2021/04/18 08:47:05;;;;;;;8.40;4.57;;;13.90;99.90;;;;;;5024779;28;20248;-54
2021/04/18 08:49:36;;;;;;;8.33;3.90;;;14.30;99.90;;;;;;5031268;28;20238;-52
2021/04/18 08:52:07;;;;;;;5.63;3.67;;;14.30;99.90;;;;;;5034377;28;20239;-51
2021/04/18 08:54:37;;;;;;;7.03;4.13;;;14.40;99.90;;;;;;5034005;28;20873;-53
2021/04/18 08:57:09;;;;;;;9.13;3.93;;;14.70;99.90;;;;;;5030932;28;20236;-51
2021/04/18 08:59:37;;;;;;;4.90;3.63;;;14.80;99.90;;;;;;5028509;28;20236;-52
2021/04/18 09:02:07;;;;;;;6.10;4.10;;;15.00;99.90;;;;;;5026104;28;20267;-52
2021/04/18 09:04:37;;;;;;;7.80;4.33;;;15.10;99.90;;;;;;5033189;28;20244;-54
2021/04/18 09:07:06;;;;;;;7.47;4.23;;;15.20;99.90;;;;;;5028423;28;20243;-52
2021/04/18 09:09:34;;;;;;;5.70;4.07;;;15.60;99.90;;;;;;5031199;28;20237;-55
2021/04/18 09:12:03;;;;;;;6.40;3.67;;;15.90;99.90;;;;;;5025122;28;20642;-52
2021/04/18 09:14:33;;;;;;;7.57;4.03;;;16.10;99.90;;;;;;5029703;28;20235;-54
2021/04/18 09:17:16;;;;;;;9.03;4.23;;;16.10;99.90;;;;;;5036900;28;20236;-53
2021/04/18 09:19:46;;;;;;;6.83;4.13;;;15.60;99.90;;;;;;5014824;28;20801;-52
2021/04/18 09:22:17;;;;;;;7.83;4.43;;;15.30;99.90;;;;;;5026749;28;20330;-55
2021/04/18 09:24:54;;;;;;;6.60;3.90;;;15.40;99.90;;;;;;5006858;28;20255;-55
2021/04/18 09:27:25;;;;;;;8.17;4.37;;;16.10;99.90;;;;;;5029216;28;20650;-53
2021/04/18 09:29:57;;;;;;;8.60;4.30;;;16.30;99.90;;;;;;5022728;28;20248;-54
2021/04/18 09:32:27;;;;;;;6.90;4.37;;;16.80;99.90;;;;;;5015513;28;20824;-53
2021/04/18 09:34:55;;;;;;;7.07;4.27;;;17.20;99.90;;;;;;5029254;28;20270;-56
2021/04/18 09:37:29;;;;;;;9.97;4.70;;;17.40;99.90;;;;;;5027700;28;20251;-54
2021/04/18 09:39:59;;;;;;;7.73;4.10;;;17.50;99.90;;;;;;5015810;28;20286;-54
2021/04/18 09:42:29;;;;;;;10.10;7.10;;;17.60;99.90;;;;;;5024975;28;20241;-52
2021/04/18 09:45:10;;;;;;;32.03;17.80;;;17.40;99.90;;;;;;5037557;28;20649;-49
2021/04/18 09:47:39;;;;;;;32.47;18.93;;;16.90;99.90;;;;;;5029249;28;20301;-53
2021/04/18 09:50:17;;;;;;;14.90;8.67;;;16.70;99.90;;;;;;5020693;28;20267;-50
2021/04/18 09:52:45;;;;;;;16.53;9.80;;;16.30;99.90;;;;;;5018586;28;20310;-52
2021/04/18 09:55:18;;;;;;;14.30;8.57;;;16.10;99.90;;;;;;5024047;28;20695;-51
2021/04/18 09:57:50;;;;;;;15.07;9.77;;;15.90;99.90;;;;;;5018018;28;20294;-54
2021/04/18 10:00:25;;;;;;;9.73;7.00;;;15.60;99.90;;;;;;5026325;28;20711;-53
2021/04/18 10:03:08;;;;;;;18.53;12.17;;;15.70;99.90;;;;;;5017556;28;20232;-52
2021/04/18 10:05:39;;;;;;;9.13;7.27;;;15.50;99.90;;;;;;5018724;28;20607;-55
2021/04/18 10:08:24;;;;;;;12.57;6.97;;;15.50;99.90;;;;;;5025728;28;20279;-52
2021/04/18 10:10:55;;;;;;;11.10;6.90;;;15.50;99.90;;;;;;5017271;28;20665;-54
2021/04/18 10:13:42;;;;;;;12.77;6.60;;;16.40;99.90;;;;;;5023429;28;20263;-53
2021/04/18 10:16:22;;;;;;;9.13;6.93;;;16.80;99.90;;;;;;5030510;28;20246;-51
2021/04/18 10:19:10;;;;;;;7.73;6.30;;;17.10;99.90;;;;;;5018175;28;20252;-53
2021/04/18 10:22:08;;;;;;;8.47;5.70;;;16.60;99.90;;;;;;5021528;28;20818;-52
2021/04/18 10:24:38;;;;;;;8.63;6.20;;;16.50;99.90;;;;;;5018653;28;20882;-55
2021/04/18 10:27:10;;;;;;;12.73;6.97;;;16.60;99.90;;;;;;5018634;28;21008;-51
2021/04/18 10:29:39;;;;;;;9.50;7.07;;;16.60;99.90;;;;;;5015846;28;20276;-50
2021/04/18 10:32:07;;;;;;;10.60;7.07;;;16.60;99.90;;;;;;5022421;28;20233;-52
2021/04/18 10:34:37;;;;;;;8.73;6.23;;;16.90;99.90;;;;;;5030507;28;20880;-54
2021/04/18 10:37:06;;;;;;;11.03;6.80;;;17.00;99.90;;;;;;5024774;28;20244;-51
2021/04/18 10:39:34;;;;;;;10.03;6.77;;;17.00;99.90;;;;;;5026309;28;20274;-54
2021/04/18 10:42:02;;;;;;;9.80;7.10;;;17.20;99.90;;;;;;5009907;28;20241;-51
2021/04/18 10:44:29;;;;;;;8.97;7.30;;;17.30;99.90;;;;;;5024588;28;20599;-52
2021/04/18 10:46:59;;;;;;;9.03;6.97;;;17.10;99.90;;;;;;5019575;28;20241;-53
2021/04/18 10:49:28;;;;;;;10.30;6.80;;;17.10;99.90;;;;;;5025329;28;20250;-52
2021/04/18 10:52:21;;;;;;;9.57;6.80;;;17.10;99.90;;;;;;5025033;28;20240;-55
2021/04/18 10:54:49;;;;;;;7.57;6.77;;;17.20;99.90;;;;;;5029072;28;20371;-54
2021/04/18 10:57:16;;;;;;;8.43;7.53;;;17.50;99.90;;;;;;5028978;28;20240;-51
2021/04/18 10:59:43;;;;;;;9.50;7.10;;;17.60;99.90;;;;;;5028552;28;20252;-53
2021/04/18 11:02:10;;;;;;;7.73;6.93;;;17.60;99.90;;;;;;5012303;28;20696;-51
2021/04/18 11:04:38;;;;;;;10.80;6.43;;;17.70;99.90;;;;;;5013185;28;20316;-53
2021/04/18 11:07:05;;;;;;;7.50;6.80;;;17.70;99.90;;;;;;5020143;28;20261;-53
2021/04/18 11:09:33;;;;;;;9.10;6.80;;;17.60;99.90;;;;;;5020833;28;20232;-52
2021/04/18 11:12:01;;;;;;;9.40;6.63;;;17.70;99.90;;;;;;5021784;28;20793;-52
2021/04/18 11:14:29;;;;;;;7.50;6.10;;;17.50;99.90;;;;;;5022197;28;20779;-54
2021/04/18 11:16:56;;;;;;;7.43;6.73;;;17.60;99.90;;;;;;5022567;28;21811;-52
2021/04/18 11:19:24;;;;;;;7.43;6.17;;;17.40;99.90;;;;;;5023870;28;20645;-52
2021/04/18 11:21:52;;;;;;;8.40;6.43;;;17.80;99.90;;;;;;5021483;28;20627;-56
2021/04/18 11:24:19;;;;;;;7.00;5.90;;;18.10;99.90;;;;;;5016037;28;20237;-55
2021/04/18 11:26:48;;;;;;;6.60;5.83;;;18.00;99.90;;;;;;5022899;28;20257;-54
2021/04/18 11:29:15;;;;;;;6.97;5.50;;;18.10;99.90;;;;;;4999033;28;20236;-50
2021/04/18 11:31:44;;;;;;;8.63;6.10;;;18.40;99.90;;;;;;5005495;28;20240;-51
2021/04/18 11:34:12;;;;;;;8.33;6.30;;;18.10;99.90;;;;;;5018718;28;20709;-55
2021/04/18 11:36:44;;;;;;;6.63;5.93;;;18.40;99.90;;;;;;5022357;28;20291;-53
2021/04/18 11:39:12;;;;;;;6.93;5.53;;;18.50;99.90;;;;;;5015580;28;20265;-51
2021/04/18 11:41:40;;;;;;;12.10;5.77;;;18.40;99.90;;;;;;5031478;28;20521;-50
2021/04/18 11:44:09;;;;;;;7.40;5.77;;;17.90;99.90;;;;;;5028787;28;20283;-51
2021/04/18 11:46:36;;;;;;;7.30;5.47;;;17.60;99.90;;;;;;5016731;28;20248;-53
2021/04/18 11:49:10;;;;;;;6.87;5.17;;;17.80;99.90;;;;;;5016963;28;20787;-53
2021/04/18 11:51:39;;;;;;;6.27;5.10;;;17.90;99.90;;;;;;5022511;28;20260;-54
2021/04/18 11:54:07;;;;;;;6.80;5.40;;;17.90;99.90;;;;;;5017099;28;20358;-51
2021/04/18 11:56:35;;;;;;;7.77;5.40;;;17.70;99.90;;;;;;5015049;28;20249;-55
2021/04/18 11:59:03;;;;;;;9.53;5.07;;;17.90;99.90;;;;;;5017074;28;20264;-52
2021/04/18 12:01:31;;;;;;;9.27;5.00;;;17.70;99.90;;;;;;5017174;28;20233;-56
2021/04/18 12:03:59;;;;;;;8.07;4.73;;;17.70;99.90;;;;;;5016670;28;20249;-51
2021/04/18 12:06:27;;;;;;;8.00;5.40;;;17.70;99.90;;;;;;5014469;28;20248;-51
2021/04/18 12:08:54;;;;;;;7.83;5.20;;;17.50;99.90;;;;;;5024195;28;20240;-51
2021/04/18 12:11:22;;;;;;;6.87;5.20;;;17.70;99.90;;;;;;5026001;28;20241;-55
2021/04/18 12:13:49;;;;;;;8.43;4.70;;;17.80;99.90;;;;;;5025409;28;20264;-52
2021/04/18 12:16:16;;;;;;;6.00;4.90;;;17.90;99.90;;;;;;5028676;28;20605;-53
2021/04/18 12:18:45;;;;;;;7.20;5.20;;;17.90;99.90;;;;;;5025465;28;20753;-52
2021/04/18 12:21:13;;;;;;;8.67;5.63;;;18.00;99.90;;;;;;5024669;28;20792;-54
2021/04/18 12:23:41;;;;;;;5.80;5.20;;;17.90;99.90;;;;;;5020051;28;20239;-56
2021/04/18 12:26:09;;;;;;;6.40;4.83;;;17.50;99.90;;;;;;5009816;28;20294;-52
2021/04/18 12:28:37;;;;;;;6.17;4.87;;;17.70;99.90;;;;;;5010117;28;20238;-54
2021/04/18 12:31:08;;;;;;;7.20;4.67;;;17.90;99.90;;;;;;5012060;28;20234;-55
2021/04/18 12:33:36;;;;;;;6.73;5.40;;;18.10;99.90;;;;;;5026683;28;20234;-53
2021/04/18 12:36:07;;;;;;;6.47;5.00;;;17.90;99.90;;;;;;5012319;28;20660;-53
2021/04/18 12:39:01;;;;;;;6.43;4.30;;;17.70;99.90;;;;;;5030639;28;20240;-51
2021/04/18 12:41:28;;;;;;;7.07;5.37;;;17.50;99.90;;;;;;5029781;28;20272;-54
2021/04/18 12:44:07;;;;;;;7.15;5.53;;;17.20;99.90;;;;;;970190;28;10022624;-51
2021/04/18 12:46:35;;;;;;;7.83;4.87;;;17.20;99.90;;;;;;4666793;28;10001095;-55
2021/04/18 12:49:02;;;;;;;5.97;4.80;;;17.00;99.90;;;;;;5031867;28;20224;-55
2021/04/18 12:51:31;;;;;;;7.73;5.47;;;17.00;99.90;;;;;;5018202;28;20600;-53
2021/04/18 12:54:05;;;;;;;6.10;5.50;;;17.00;99.90;;;;;;5010197;28;20264;-55
2021/04/18 12:56:34;;;;;;;7.33;4.73;;;17.00;99.90;;;;;;5009944;28;20241;-54
2021/04/18 12:59:01;;;;;;;8.33;5.47;;;17.10;99.90;;;;;;5010110;28;20805;-53
2021/04/18 13:01:29;;;;;;;6.50;5.43;;;17.30;99.90;;;;;;5021739;28;21291;-55
2021/04/18 13:03:56;;;;;;;8.23;5.90;;;17.20;99.90;;;;;;5023850;28;20240;-56
2021/04/18 13:06:24;;;;;;;7.17;5.77;;;17.10;99.90;;;;;;5028513;28;20340;-51
2021/04/18 13:08:52;;;;;;;8.73;5.87;;;17.30;99.90;;;;;;5020070;28;20237;-53